Jolon, CA

9:37 AM PDT on March 28, 2015 (GMT -0700)
South of San Ardo | | Change Station
CLOSE
Current Station
Personal Weather Station
Location: San Ardo, CA
Elevation: 600 ft
Nearby Weather Stations

Elev 600 ft 35.97 °N, 120.90 °W | Updated 5 seconds ago

Overcast
Overcast
52.2 °F
Feels Like 52.2 °F
N
2.0
Wind Variable Wind from NNE
Gusts 4.9 mph

Today
High -- | Low -- °F
--% Chance of Precip.
Yesterday
High -- | Low -- °F
Precip. -- in
6:56 AM 7:22 PM
Waxing Gibbous, 63% visible
Pressure 30.16 in
Visibility 2.5 miles
Clouds Overcast 200 ft
Dew Point 47 °F
Humidity 81%
Rainfall 0.00 in
Snow Depth Not available.
UV 2.0 out of 12
Pollen 9.80 out of 12
Air Quality Not available.
Flu Activity Not available.
SPECI KPRB 281624Z AUTO 34004KT 2 1/2SM BR OVC002 10/09 A3016 RMK AO2 VIS 1 1/2V4 T01000089 TSNO $

More Conditions Fewer Conditions

Pressure 30.16 in
Visibility 2.5 miles
Clouds Overcast 200 ft
Dew Point 47 °F
Humidity 81%
Rainfall 0.00 in
Snow Depth Not available.
UV 2.0 out of 12
Pollen 9.80 out of 12
Air Quality Not available.
Flu Activity Not available.
SPECI KPRB 281624Z AUTO 34004KT 2 1/2SM BR OVC002 10/09 A3016 RMK AO2 VIS 1 1/2V4 T01000089 TSNO $

More Conditions Fewer Conditions

10-Day Weather Forecast

Almanac

Astronomy

Mar. 28, 2015 Rise Set
Actual Time
Civil Twilight
Nautical Twilight
Astronomical Twilight
Moon
Length of Visible Light
Length of Day
Tomorrow will be .
, % of the Moon is Illuminated

Today's Extremes

State Highs State Lows

Community

WunderPhotos

Upload Photos

1,809,027 photos uploaded!

WunderBlogs® & News

Nearby

Air Quality

  Air Quality AQ Index Pollutant
Not available.

Snow Depth

Station Depth Elevation

Earthquake Activity

City Distance Mag. Time & Date
Minimum magnitude displayed is 2.5.

Coastal Water Temperatures

Place Temperature

Stations

Nearby Weather Stations

Station Location Temp. Windchill Dew Point Humidity Wind Precip. Elev Updated Type